Time;durP1;ratioP1;P1;durP2;ratioP2;P2;SDS_P1;SDS_P2;PMS_P1;PMS_P2;Temp;Humidity;BMP_temperature;BMP_pressure;BME280_temperature;BME280_humidity;BME280_pressure;Samples;Min_cycle;Max_cycle;Signal;HPM_P1;HPM_P2
2023/06/14 00:02:30;;;;;;;7.18;4.43;;;23.00;53.50;;;;;;7642194;22;80471;-63
2023/06/14 00:05:33;;;;;;;6.45;3.88;;;23.00;53.60;;;;;;7642773;22;80905;-62
2023/06/14 00:08:34;;;;;;;10.50;4.50;;;23.00;53.60;;;;;;7642151;22;80451;-63
2023/06/14 00:11:35;;;;;;;7.63;4.35;;;23.00;53.60;;;;;;7643078;22;80271;-62
2023/06/14 00:14:35;;;;;;;6.57;4.22;;;23.00;53.70;;;;;;7643620;22;80082;-76
2023/06/14 00:17:36;;;;;;;6.57;4.07;;;23.00;53.70;;;;;;7643081;22;80211;-74
2023/06/14 00:20:36;;;;;;;6.18;4.22;;;23.10;53.80;;;;;;7646406;22;80784;-78
2023/06/14 00:23:37;;;;;;;6.82;4.28;;;23.10;53.80;;;;;;7644436;22;80751;-75
2023/06/14 00:26:37;;;;;;;5.72;4.22;;;23.00;53.70;;;;;;7616722;22;82341;-74
2023/06/14 00:29:39;;;;;;;6.20;4.38;;;23.00;53.80;;;;;;7642206;22;80559;-73
2023/06/14 00:32:40;;;;;;;6.68;3.97;;;23.10;53.80;;;;;;7619646;22;83450;-63
2023/06/14 00:35:40;;;;;;;9.07;3.92;;;23.10;53.70;;;;;;7641577;22;80892;-63
2023/06/14 00:38:41;;;;;;;6.22;4.35;;;23.10;53.70;;;;;;7640517;22;80720;-61
2023/06/14 00:41:43;;;;;;;5.78;4.07;;;23.10;53.90;;;;;;7641666;22;80435;-62
2023/06/14 00:44:43;;;;;;;5.70;3.80;;;23.00;53.80;;;;;;7640864;22;80302;-63
2023/06/14 00:47:44;;;;;;;5.88;4.10;;;23.10;53.90;;;;;;7613621;22;83091;-63
2023/06/14 00:50:45;;;;;;;7.15;4.22;;;23.00;53.90;;;;;;7642706;22;80282;-63
2023/06/14 00:53:46;;;;;;;5.20;4.10;;;23.00;53.90;;;;;;7641768;22;80421;-63
2023/06/14 00:56:47;;;;;;;6.95;4.22;;;23.00;53.90;;;;;;7615986;22;83490;-62
2023/06/14 00:59:47;;;;;;;5.80;4.00;;;23.00;53.90;;;;;;7641733;22;81067;-62
2023/06/14 01:02:49;;;;;;;6.05;4.68;;;23.00;54.00;;;;;;7640957;22;81026;-62
2023/06/14 01:05:50;;;;;;;5.65;4.20;;;23.00;53.90;;;;;;7641594;22;80055;-61
2023/06/14 01:08:51;;;;;;;7.72;4.18;;;23.00;54.00;;;;;;7645490;22;80208;-58
2023/06/14 01:11:52;;;;;;;5.80;4.22;;;23.00;54.00;;;;;;7613583;22;83466;-58
2023/06/14 01:14:52;;;;;;;6.72;4.40;;;23.00;53.90;;;;;;7641238;22;80384;-57
2023/06/14 01:17:53;;;;;;;7.30;4.38;;;23.00;54.00;;;;;;7641281;22;80760;-58
2023/06/14 01:20:55;;;;;;;5.88;3.78;;;23.00;54.10;;;;;;7641812;22;80670;-58
2023/06/14 01:23:59;;;;;;;6.00;4.30;;;23.00;54.10;;;;;;7641075;22;81223;-58
2023/06/14 01:27:00;;;;;;;6.60;4.15;;;23.00;54.10;;;;;;7641189;22;80161;-58
2023/06/14 01:30:02;;;;;;;4.88;3.72;;;23.00;54.10;;;;;;7642204;22;80253;-58
2023/06/14 01:33:02;;;;;;;6.10;3.83;;;23.00;54.20;;;;;;7614480;22;81452;-57
2023/06/14 01:36:04;;;;;;;5.30;3.90;;;23.00;54.30;;;;;;7613106;22;81444;-57
2023/06/14 01:39:05;;;;;;;6.13;4.15;;;23.00;54.20;;;;;;7641445;22;81068;-59
2023/06/14 01:42:06;;;;;;;7.22;4.43;;;23.00;54.30;;;;;;7641412;22;80870;-59
2023/06/14 01:45:06;;;;;;;5.30;3.70;;;23.00;54.40;;;;;;7642379;22;80806;-62
2023/06/14 01:48:07;;;;;;;5.32;4.05;;;23.00;54.50;;;;;;7641078;22;81722;-62
2023/06/14 01:51:08;;;;;;;5.70;4.05;;;23.00;54.40;;;;;;7614378;22;81515;-62
2023/06/14 01:54:09;;;;;;;6.07;3.88;;;23.00;54.30;;;;;;7641367;22;80452;-63
2023/06/14 01:57:10;;;;;;;5.75;4.07;;;23.00;54.40;;;;;;7641249;22;80515;-62
2023/06/14 03:24:20;;;;;;;7.05;4.50;;;22.90;54.80;;;;;;7656131;22;80710;-59
2023/06/14 03:27:21;;;;;;;7.05;5.13;;;22.90;54.90;;;;;;7653091;22;83148;-56
2023/06/14 03:30:22;;;;;;;5.82;4.32;;;22.90;54.90;;;;;;7653263;22;83316;-58
2023/06/14 03:33:25;;;;;;;7.13;4.50;;;22.90;54.90;;;;;;7654259;22;82393;-58
2023/06/14 03:36:27;;;;;;;5.97;4.70;;;22.90;54.90;;;;;;7656124;22;80426;-79
2023/06/14 03:39:29;;;;;;;7.70;4.07;;;22.90;54.80;;;;;;7655664;22;83085;-71
2023/06/14 03:42:31;;;;;;;7.43;4.85;;;22.90;54.80;;;;;;7657659;22;81490;-78
2023/06/14 03:45:32;;;;;;;7.57;4.35;;;22.90;54.80;;;;;;7652433;22;82406;-66
2023/06/14 03:48:34;;;;;;;8.25;4.82;;;22.90;54.90;;;;;;7651548;22;80195;-67
2023/06/14 03:51:36;;;;;;;8.02;4.63;;;22.90;54.80;;;;;;7677036;22;80184;-66
2023/06/14 03:54:37;;;;;;;7.80;4.97;;;22.90;54.80;;;;;;7686469;22;81186;-66
2023/06/14 03:57:37;;;;;;;9.50;5.60;;;22.90;54.90;;;;;;7678654;22;80229;-62
2023/06/14 04:00:43;;;;;;;8.33;4.77;;;22.90;54.80;;;;;;7652233;22;81383;-64
2023/06/14 04:03:43;;;;;;;9.30;5.25;;;22.90;54.80;;;;;;7652297;22;83571;-69
2023/06/14 04:06:48;;;;;;;12.63;5.45;;;22.90;55.00;;;;;;7640263;22;88352;-65
2023/06/14 04:09:48;;;;;;;8.23;5.20;;;22.90;55.10;;;;;;7641852;22;80301;-68
2023/06/14 04:12:49;;;;;;;11.45;5.35;;;22.90;55.20;;;;;;7640746;22;82702;-67
2023/06/14 04:15:51;;;;;;;9.68;5.32;;;22.90;55.30;;;;;;7648285;22;83630;-65
2023/06/14 04:18:58;;;;;;;8.25;5.30;;;22.90;55.60;;;;;;7651233;22;80680;-66
2023/06/14 04:22:01;;;;;;;8.15;5.28;;;23.00;55.70;;;;;;7641832;22;80331;-64
2023/06/14 04:25:01;;;;;;;10.68;4.72;;;23.00;56.40;;;;;;7640721;22;83281;-74
2023/06/14 04:28:03;;;;;;;7.40;4.40;;;23.00;56.20;;;;;;7640374;22;82595;-63
2023/06/14 04:31:04;;;;;;;8.55;4.50;;;23.00;56.70;;;;;;7639848;22;83338;-70
2023/06/14 04:34:06;;;;;;;6.28;4.28;;;22.90;56.70;;;;;;7639726;22;82375;-68
2023/06/14 04:37:08;;;;;;;9.15;5.00;;;23.00;57.00;;;;;;7637550;22;80663;-70
2023/06/14 04:40:11;;;;;;;9.65;5.07;;;23.00;56.90;;;;;;7636209;22;82371;-72
2023/06/14 04:43:13;;;;;;;10.88;5.00;;;23.00;56.60;;;;;;7637196;22;82807;-66
2023/06/14 04:46:15;;;;;;;14.20;5.50;;;23.00;56.60;;;;;;7635160;22;80448;-67
2023/06/14 04:49:16;;;;;;;11.98;5.22;;;23.00;56.80;;;;;;7638824;22;80338;-64
2023/06/14 04:52:17;;;;;;;10.60;4.70;;;23.00;56.80;;;;;;7635700;22;83239;-65
2023/06/14 04:55:19;;;;;;;12.15;5.20;;;23.00;56.70;;;;;;7633026;22;82389;-66
2023/06/14 04:58:20;;;;;;;12.48;5.40;;;23.00;56.70;;;;;;7632902;22;83051;-65
2023/06/14 05:01:23;;;;;;;9.82;5.25;;;23.00;56.50;;;;;;7634476;22;81737;-66
2023/06/14 05:04:25;;;;;;;9.18;5.60;;;23.00;56.40;;;;;;7636456;22;83578;-67
2023/06/14 05:07:26;;;;;;;13.52;5.63;;;23.00;56.30;;;;;;7635797;22;82869;-66
2023/06/14 05:10:26;;;;;;;12.52;5.13;;;23.00;56.30;;;;;;7637791;22;82807;-67
2023/06/14 05:13:27;;;;;;;22.50;5.80;;;23.00;56.20;;;;;;7611100;22;82005;-65
2023/06/14 05:16:29;;;;;;;10.20;5.93;;;23.00;56.10;;;;;;7638082;22;83246;-65
2023/06/14 05:19:30;;;;;;;8.82;4.80;;;23.00;56.10;;;;;;7637464;22;82411;-65
2023/06/14 05:22:31;;;;;;;10.75;5.60;;;22.90;56.00;;;;;;7635009;22;80373;-65
2023/06/14 05:25:31;;;;;;;11.45;6.65;;;22.90;56.00;;;;;;7633747;22;82195;-58
2023/06/14 05:28:32;;;;;;;9.98;5.60;;;22.90;55.90;;;;;;7635848;22;80737;-58
2023/06/14 05:31:32;;;;;;;12.93;5.90;;;22.90;55.90;;;;;;7640728;22;80371;-55
2023/06/14 05:34:33;;;;;;;12.32;7.00;;;22.90;55.80;;;;;;7641316;22;80282;-58
2023/06/14 05:37:33;;;;;;;15.10;7.93;;;22.90;55.80;;;;;;7641444;22;80493;-55
2023/06/14 05:40:34;;;;;;;17.30;8.35;;;22.80;55.90;;;;;;7641094;22;80818;-54
2023/06/14 05:43:34;;;;;;;14.77;8.43;;;22.70;55.90;;;;;;7641053;22;80736;-57
2023/06/14 05:46:35;;;;;;;21.17;9.35;;;22.70;56.00;;;;;;7594190;22;87900;-57
2023/06/14 05:49:36;;;;;;;18.10;9.13;;;22.60;56.00;;;;;;7620042;22;81519;-58
2023/06/14 05:52:39;;;;;;;19.13;9.60;;;22.60;56.00;;;;;;7678057;22;80817;-57
2023/06/14 05:55:40;;;;;;;17.50;9.60;;;22.60;56.10;;;;;;7677252;22;80889;-56
2023/06/14 05:58:40;;;;;;;18.17;10.05;;;22.60;56.20;;;;;;7677998;22;80390;-58
2023/06/14 06:01:42;;;;;;;17.80;10.15;;;22.50;56.20;;;;;;7674424;22;83586;-58
2023/06/14 06:04:42;;;;;;;19.55;9.70;;;22.60;56.20;;;;;;7673376;22;83712;-58
2023/06/14 06:07:45;;;;;;;18.88;10.00;;;22.50;56.30;;;;;;7676615;22;82295;-57
2023/06/14 06:10:46;;;;;;;22.15;10.60;;;22.50;56.30;;;;;;7674005;22;82780;-57
2023/06/14 06:13:46;;;;;;;16.73;9.65;;;22.50;56.40;;;;;;7647083;22;84500;-56
2023/06/14 06:16:47;;;;;;;21.58;10.38;;;22.50;57.00;;;;;;7678561;22;82897;-59
2023/06/14 06:19:48;;;;;;;20.85;10.30;;;22.50;56.40;;;;;;7680485;22;83004;-59
2023/06/14 06:22:48;;;;;;;25.98;11.25;;;22.50;56.50;;;;;;7645229;22;85587;-58
2023/06/14 06:25:49;;;;;;;20.83;10.95;;;22.50;56.50;;;;;;7672956;22;83003;-59
2023/06/14 06:28:49;;;;;;;24.15;12.60;;;22.40;56.40;;;;;;7672575;22;83008;-59
2023/06/14 06:31:50;;;;;;;19.60;10.65;;;22.40;56.50;;;;;;7673242;22;83659;-58
2023/06/14 06:34:51;;;;;;;21.85;11.75;;;22.50;56.60;;;;;;7673005;22;83026;-58
2023/06/14 06:37:52;;;;;;;21.50;12.13;;;22.40;56.70;;;;;;7671671;22;82841;-58
2023/06/14 06:40:54;;;;;;;26.23;12.23;;;22.40;56.70;;;;;;7674152;22;83226;-63
2023/06/14 06:43:54;;;;;;;21.33;10.70;;;22.40;56.80;;;;;;7671649;22;83206;-64
2023/06/14 06:47:02;;;;;;;22.27;12.48;;;22.40;56.80;;;;;;7646007;22;85527;-65
2023/06/14 06:50:03;;;;;;;24.83;11.68;;;22.40;57.00;;;;;;7674267;22;82800;-64
2023/06/14 06:53:03;;;;;;;22.25;12.57;;;22.40;57.00;;;;;;7670542;22;83371;-62
2023/06/14 06:56:04;;;;;;;24.77;13.25;;;22.40;57.20;;;;;;7673716;22;83270;-62
2023/06/14 06:59:05;;;;;;;24.80;12.70;;;22.40;57.20;;;;;;7646434;22;83419;-63
2023/06/14 07:02:05;;;;;;;21.60;11.60;;;22.40;57.50;;;;;;7675447;22;84132;-62
2023/06/14 07:05:06;;;;;;;23.45;11.88;;;22.40;57.50;;;;;;7672903;22;83370;-62
2023/06/14 07:08:06;;;;;;;21.08;10.70;;;22.30;57.50;;;;;;7674644;22;82904;-63
2023/06/14 07:11:07;;;;;;;24.25;12.45;;;22.30;57.50;;;;;;7673607;22;83401;-63
2023/06/14 07:14:07;;;;;;;19.65;10.65;;;22.30;57.60;;;;;;7674706;22;83259;-62
2023/06/14 07:17:08;;;;;;;20.58;10.60;;;22.30;57.70;;;;;;7674018;22;83092;-65
2023/06/14 07:20:13;;;;;;;24.45;12.30;;;22.30;57.70;;;;;;7647615;22;85927;-62
2023/06/14 07:23:14;;;;;;;19.58;10.25;;;22.30;57.80;;;;;;7674119;22;83363;-63
2023/06/14 07:26:15;;;;;;;21.13;10.60;;;22.30;57.80;;;;;;7674819;22;83742;-63
2023/06/14 07:29:16;;;;;;;20.08;10.45;;;22.40;57.90;;;;;;7674103;22;83825;-62
2023/06/14 07:32:16;;;;;;;18.30;9.75;;;22.30;58.10;;;;;;7674494;22;83094;-63
2023/06/14 07:35:17;;;;;;;17.05;10.02;;;22.30;58.00;;;;;;7678573;22;82742;-64
2023/06/14 07:38:18;;;;;;;16.83;9.13;;;22.30;58.20;;;;;;7675387;22;83065;-63
2023/06/14 07:41:18;;;;;;;17.42;10.30;;;22.40;58.30;;;;;;7677522;22;82871;-63
2023/06/14 07:44:18;;;;;;;14.85;9.05;;;22.40;58.50;;;;;;7674107;22;83239;-64
2023/06/14 07:47:19;;;;;;;17.98;8.90;;;22.40;58.50;;;;;;7677493;22;82954;-64
2023/06/14 07:50:20;;;;;;;13.35;7.55;;;22.40;58.50;;;;;;7679037;22;80286;-65
2023/06/14 07:53:20;;;;;;;15.82;8.23;;;22.40;58.50;;;;;;7680985;22;86195;-68
2023/06/14 07:56:21;;;;;;;12.15;6.35;;;22.30;58.80;;;;;;7679793;22;80597;-68
2023/06/14 07:59:21;;;;;;;11.68;6.60;;;22.40;58.80;;;;;;7680855;22;80088;-70
2023/06/14 08:02:22;;;;;;;8.60;5.50;;;22.40;59.00;;;;;;7680506;22;80669;-69
2023/06/14 08:05:22;;;;;;;9.13;5.22;;;22.40;58.90;;;;;;7679657;22;80482;-69
2023/06/14 08:08:23;;;;;;;14.05;4.93;;;22.40;59.30;;;;;;7679035;22;81373;-70
2023/06/14 08:11:24;;;;;;;8.65;4.75;;;22.40;59.30;;;;;;7680521;22;80112;-69
2023/06/14 08:14:24;;;;;;;12.27;5.47;;;22.40;59.30;;;;;;7678032;22;80950;-70
2023/06/14 08:17:25;;;;;;;5.68;3.58;;;22.40;59.20;;;;;;7678986;22;80389;-70
2023/06/14 08:20:25;;;;;;;6.82;3.85;;;22.40;59.40;;;;;;7652165;22;83442;-67
2023/06/14 08:23:26;;;;;;;7.95;3.80;;;22.40;59.50;;;;;;7677342;22;80791;-70
2023/06/14 08:26:28;;;;;;;4.75;3.40;;;22.40;59.40;;;;;;7678630;22;80299;-72
2023/06/14 08:29:30;;;;;;;5.65;3.10;;;22.40;59.70;;;;;;7681035;22;80221;-65
2023/06/14 08:32:31;;;;;;;7.22;3.25;;;22.40;59.60;;;;;;7679887;22;80313;-63
2023/06/14 08:35:31;;;;;;;5.90;2.63;;;22.40;59.60;;;;;;7680319;22;81062;-64
2023/06/14 08:38:32;;;;;;;5.05;2.92;;;22.40;59.90;;;;;;7679911;22;80244;-63
2023/06/14 08:41:32;;;;;;;4.30;2.97;;;22.40;60.10;;;;;;7679994;22;80419;-63
2023/06/14 08:44:33;;;;;;;4.88;2.60;;;22.40;59.90;;;;;;7679504;22;80461;-65
2023/06/14 08:47:36;;;;;;;3.78;2.53;;;22.40;59.90;;;;;;7680385;22;81041;-65
2023/06/14 08:50:37;;;;;;;4.18;2.30;;;22.40;60.10;;;;;;7666702;22;81295;-64
2023/06/14 08:53:41;;;;;;;3.72;2.05;;;22.40;60.00;;;;;;7679140;22;80798;-64
2023/06/14 08:56:44;;;;;;;5.82;2.58;;;22.40;60.30;;;;;;7678096;22;80289;-63
2023/06/14 08:59:44;;;;;;;3.22;2.00;;;22.40;60.20;;;;;;7679113;22;80146;-63
2023/06/14 09:02:45;;;;;;;3.58;2.33;;;22.40;60.50;;;;;;7678738;22;80426;-63
2023/06/14 09:05:46;;;;;;;3.10;1.92;;;22.40;60.50;;;;;;7681312;22;80316;-58
2023/06/14 09:08:47;;;;;;;2.47;1.80;;;22.40;60.40;;;;;;7677763;22;80243;-58
2023/06/14 09:11:50;;;;;;;5.07;1.70;;;22.40;60.40;;;;;;7652588;22;86699;-58
2023/06/14 09:14:51;;;;;;;4.00;1.83;;;22.40;60.60;;;;;;7678095;22;80620;-59
2023/06/14 09:17:51;;;;;;;3.13;1.73;;;22.40;60.50;;;;;;7676818;22;80736;-58
2023/06/14 09:20:52;;;;;;;8.02;2.08;;;22.40;60.60;;;;;;7677076;22;80571;-58
2023/06/14 09:23:53;;;;;;;3.50;2.03;;;22.40;60.70;;;;;;7677984;22;80830;-57
2023/06/14 09:26:54;;;;;;;2.47;1.70;;;22.40;60.90;;;;;;7679954;22;81481;-57
2023/06/14 09:29:54;;;;;;;5.38;2.22;;;22.40;60.90;;;;;;7678986;22;80558;-58
2023/06/14 09:32:56;;;;;;;4.10;2.33;;;22.40;61.10;;;;;;7679330;22;80586;-59
2023/06/14 09:35:56;;;;;;;3.65;2.33;;;22.40;61.10;;;;;;7679069;22;80678;-58
2023/06/14 09:38:57;;;;;;;10.65;2.72;;;22.30;61.00;;;;;;7679013;22;80194;-58
2023/06/14 09:41:57;;;;;;;8.82;3.17;;;22.30;61.10;;;;;;7678099;22;80547;-59
2023/06/14 09:44:58;;;;;;;5.72;3.25;;;22.30;61.10;;;;;;7679743;22;80031;-58
2023/06/14 09:47:58;;;;;;;4.70;2.47;;;22.40;61.20;;;;;;7677649;22;80106;-58
2023/06/14 09:50:59;;;;;;;6.18;2.97;;;22.40;61.10;;;;;;7678561;22;80343;-59
2023/06/14 09:54:00;;;;;;;7.03;2.88;;;22.40;61.20;;;;;;7678273;22;80811;-59
2023/06/14 09:57:01;;;;;;;6.18;3.15;;;22.40;61.30;;;;;;7679108;22;80096;-59
2023/06/14 10:00:05;;;;;;;3.60;2.92;;;22.40;61.30;;;;;;7679723;22;80573;-61
2023/06/14 10:03:13;;;;;;;5.15;3.25;;;22.40;61.40;;;;;;7654261;22;84518;-62
2023/06/14 10:06:13;;;;;;;3.95;3.17;;;22.40;61.30;;;;;;7676327;22;80771;-61
2023/06/14 10:09:14;;;;;;;5.75;3.45;;;22.40;61.20;;;;;;7679037;22;80871;-62
2023/06/14 10:12:20;;;;;;;4.95;3.20;;;22.40;61.40;;;;;;7651356;22;82098;-61
2023/06/14 10:15:21;;;;;;;5.65;3.78;;;22.40;61.50;;;;;;7679638;22;81108;-60
2023/06/14 10:18:22;;;;;;;4.60;3.50;;;22.30;61.50;;;;;;7678880;22;80978;-61
2023/06/14 10:21:22;;;;;;;6.97;3.47;;;22.40;61.40;;;;;;7679836;22;80455;-69
2023/06/14 10:24:23;;;;;;;5.38;3.42;;;22.40;61.30;;;;;;7677849;22;80413;-68
2023/06/14 10:27:24;;;;;;;7.85;3.92;;;22.30;61.30;;;;;;7678476;22;80226;-70
2023/06/14 10:30:25;;;;;;;4.82;3.42;;;22.40;61.40;;;;;;7676819;22;80150;-67
2023/06/14 10:33:25;;;;;;;4.53;3.30;;;22.40;61.70;;;;;;7679403;22;80961;-69
2023/06/14 10:36:26;;;;;;;4.63;3.70;;;22.40;61.80;;;;;;7679486;22;80949;-68
2023/06/14 10:39:27;;;;;;;5.30;3.58;;;22.40;61.70;;;;;;7680687;22;80725;-67
2023/06/14 10:42:27;;;;;;;6.55;3.67;;;22.40;62.00;;;;;;7652657;22;81207;-67
2023/06/14 10:45:28;;;;;;;4.88;3.20;;;22.40;61.80;;;;;;7678468;22;80724;-67
2023/06/14 10:48:28;;;;;;;9.13;3.60;;;22.40;61.70;;;;;;7680618;22;80125;-67
2023/06/14 10:51:29;;;;;;;8.20;3.58;;;22.40;61.70;;;;;;7679923;22;80191;-66
2023/06/14 10:54:30;;;;;;;6.60;3.40;;;22.50;61.80;;;;;;7680092;22;80624;-67
2023/06/14 10:57:33;;;;;;;6.55;3.60;;;22.40;61.60;;;;;;7680483;22;80676;-67
2023/06/14 11:00:38;;;;;;;7.72;4.00;;;22.40;61.60;;;;;;7679576;22;80235;-67
2023/06/14 11:03:38;;;;;;;4.97;3.60;;;22.40;61.70;;;;;;7678480;22;80846;-66
2023/06/14 11:06:40;;;;;;;5.63;3.88;;;22.40;61.60;;;;;;7679626;22;80559;-67
2023/06/14 11:09:41;;;;;;;6.10;4.75;;;22.40;61.80;;;;;;7679317;22;82698;-67
2023/06/14 11:12:42;;;;;;;7.68;3.95;;;22.40;62.00;;;;;;7680251;22;80443;-66
2023/06/14 11:15:42;;;;;;;9.27;4.55;;;22.50;62.10;;;;;;7679859;22;80686;-66
2023/06/14 11:18:43;;;;;;;15.65;6.35;;;22.50;62.00;;;;;;7683709;22;80262;-64
2023/06/14 11:21:43;;;;;;;17.13;6.30;;;22.50;62.20;;;;;;7678050;22;80938;-66
2023/06/14 11:24:44;;;;;;;10.98;5.35;;;22.50;62.30;;;;;;7679000;22;80103;-65
2023/06/14 11:27:45;;;;;;;8.38;5.05;;;22.50;63.10;;;;;;7677207;22;80414;-68
2023/06/14 11:30:46;;;;;;;8.70;5.10;;;22.50;62.50;;;;;;7653911;22;82179;-64
2023/06/14 11:33:46;;;;;;;10.05;4.80;;;22.50;62.50;;;;;;7680064;22;80690;-63
2023/06/14 11:36:47;;;;;;;9.30;4.35;;;22.50;62.50;;;;;;7680254;22;80233;-63
2023/06/14 11:39:48;;;;;;;7.82;4.88;;;22.50;62.50;;;;;;7679630;22;80826;-61
2023/06/14 11:42:48;;;;;;;5.07;4.40;;;22.50;62.40;;;;;;7679985;22;80385;-62
2023/06/14 11:45:50;;;;;;;8.18;5.03;;;22.50;62.20;;;;;;7679393;22;80036;-62
2023/06/14 11:48:50;;;;;;;9.40;4.82;;;22.50;62.20;;;;;;7680093;22;80281;-64
2023/06/14 11:51:51;;;;;;;7.22;5.18;;;22.50;62.10;;;;;;7681646;22;80262;-64
2023/06/14 11:54:51;;;;;;;5.88;4.10;;;22.50;62.80;;;;;;7680350;22;80409;-63
2023/06/14 11:57:52;;;;;;;5.40;4.47;;;22.50;62.60;;;;;;7678793;22;80577;-63
2023/06/14 12:00:52;;;;;;;6.05;3.95;;;22.60;62.80;;;;;;7678882;22;80189;-63
2023/06/14 12:03:53;;;;;;;8.02;4.93;;;22.60;62.10;;;;;;7676015;22;80251;-64
2023/06/14 12:06:55;;;;;;;5.95;4.45;;;22.50;62.00;;;;;;7679753;22;80496;-63
2023/06/14 12:09:56;;;;;;;6.82;4.30;;;22.60;61.90;;;;;;7679970;22;81240;-64
2023/06/14 12:12:56;;;;;;;5.70;4.70;;;22.60;61.90;;;;;;7678747;22;80379;-63
2023/06/14 12:15:57;;;;;;;6.95;4.63;;;22.60;62.20;;;;;;7679650;22;79936;-64
2023/06/14 12:18:58;;;;;;;5.22;4.43;;;22.60;63.00;;;;;;7679336;22;80422;-64
2023/06/14 12:21:59;;;;;;;7.40;4.53;;;22.60;62.40;;;;;;7652276;22;83162;-63
2023/06/14 12:24:59;;;;;;;8.57;5.03;;;22.60;62.00;;;;;;7679744;22;80509;-63
2023/06/14 12:28:00;;;;;;;7.40;4.93;;;22.70;61.70;;;;;;7680796;22;81338;-67
2023/06/14 12:31:00;;;;;;;9.52;5.95;;;22.60;61.40;;;;;;7679205;22;81817;-68
2023/06/14 12:34:01;;;;;;;7.80;5.65;;;22.70;61.10;;;;;;7679676;22;80619;-65
2023/06/14 12:37:03;;;;;;;7.00;5.25;;;22.70;61.00;;;;;;7679086;22;80631;-66
2023/06/14 12:40:05;;;;;;;8.02;4.85;;;22.70;60.90;;;;;;7678144;22;80325;-66
2023/06/14 12:43:06;;;;;;;5.82;5.07;;;22.60;61.00;;;;;;7678105;22;80287;-66
2023/06/14 12:46:06;;;;;;;6.85;5.05;;;22.70;60.40;;;;;;7651504;22;83218;-66
2023/06/14 12:49:07;;;;;;;7.68;4.65;;;22.70;60.60;;;;;;7677361;22;80154;-66
2023/06/14 12:52:07;;;;;;;6.72;4.28;;;22.70;60.10;;;;;;7678710;22;80527;-65
2023/06/14 12:55:08;;;;;;;5.68;4.22;;;22.70;59.70;;;;;;7677647;22;79930;-65
2023/06/14 12:58:08;;;;;;;11.50;4.25;;;22.70;59.90;;;;;;7675971;22;80446;-65
2023/06/14 13:01:09;;;;;;;11.05;5.05;;;22.70;59.90;;;;;;7678196;22;80278;-65
2023/06/14 13:04:10;;;;;;;6.03;4.05;;;22.70;59.70;;;;;;7677408;22;80234;-63
2023/06/14 13:07:10;;;;;;;8.05;4.93;;;22.60;59.90;;;;;;7673993;22;80874;-63
2023/06/14 13:10:11;;;;;;;6.97;4.07;;;22.70;60.20;;;;;;7678610;22;80437;-63
2023/06/14 13:13:12;;;;;;;8.45;4.50;;;22.70;60.20;;;;;;7677866;22;80991;-63
2023/06/14 13:16:14;;;;;;;7.43;4.57;;;22.70;60.20;;;;;;7678404;22;80336;-64
2023/06/14 13:19:14;;;;;;;8.15;4.70;;;22.70;60.30;;;;;;7650259;22;80733;-63
2023/06/14 13:22:15;;;;;;;5.10;3.67;;;22.70;60.30;;;;;;7677808;22;80665;-57
2023/06/14 13:25:15;;;;;;;4.88;3.83;;;22.70;60.10;;;;;;7676586;22;81155;-57
2023/06/14 13:28:16;;;;;;;5.95;3.80;;;22.80;59.90;;;;;;7650566;22;80520;-58
2023/06/14 13:31:16;;;;;;;7.03;4.20;;;22.80;59.40;;;;;;7677687;22;80328;-58
2023/06/14 13:34:17;;;;;;;4.75;3.78;;;22.80;59.50;;;;;;7677902;22;81018;-56
2023/06/14 13:37:17;;;;;;;3.80;3.40;;;22.80;59.30;;;;;;7677121;22;80899;-57
2023/06/14 13:40:18;;;;;;;5.93;4.43;;;22.80;59.10;;;;;;7665016;22;80587;-56
2023/06/14 13:43:19;;;;;;;8.35;4.25;;;22.80;58.50;;;;;;7669426;22;81449;-56
2023/06/14 13:46:19;;;;;;;5.28;3.95;;;22.80;58.10;;;;;;7674102;22;81233;-56
2023/06/14 13:49:20;;;;;;;8.05;4.32;;;22.80;58.30;;;;;;7674813;22;80670;-57
2023/06/14 13:52:21;;;;;;;10.25;4.38;;;22.80;58.60;;;;;;7675020;22;81286;-56
2023/06/14 13:55:21;;;;;;;10.02;4.35;;;22.80;58.90;;;;;;7674947;22;80617;-58
2023/06/14 13:58:23;;;;;;;13.43;4.32;;;22.70;59.00;;;;;;7673715;22;81062;-57
2023/06/14 14:01:25;;;;;;;9.82;4.88;;;22.70;59.40;;;;;;7673719;22;81436;-60
2023/06/14 14:04:26;;;;;;;11.57;4.18;;;22.70;59.60;;;;;;7675850;22;80874;-62
2023/06/14 14:07:28;;;;;;;6.10;3.78;;;22.60;59.80;;;;;;7675022;22;80828;-62
2023/06/14 14:10:28;;;;;;;7.85;3.75;;;22.60;60.40;;;;;;7675120;22;80620;-62
2023/06/14 14:13:29;;;;;;;6.40;4.07;;;22.50;61.10;;;;;;7648961;22;81109;-61
2023/06/14 14:16:30;;;;;;;6.68;3.97;;;22.50;60.80;;;;;;7673157;22;81100;-59
2023/06/14 14:19:30;;;;;;;6.53;3.70;;;22.50;60.90;;;;;;7676399;22;80749;-66
2023/06/14 14:22:31;;;;;;;6.22;4.18;;;22.50;60.30;;;;;;7675480;22;80375;-67
2023/06/14 14:25:32;;;;;;;8.43;4.25;;;22.40;60.40;;;;;;7676280;22;80404;-64
2023/06/14 14:28:33;;;;;;;9.95;4.28;;;22.40;61.00;;;;;;7676275;22;80550;-66
2023/06/14 14:31:33;;;;;;;6.43;4.75;;;22.40;60.90;;;;;;7673742;22;80775;-67
2023/06/14 14:34:34;;;;;;;5.57;4.35;;;22.40;60.60;;;;;;7674971;22;80477;-72
2023/06/14 14:37:34;;;;;;;13.75;4.35;;;22.40;60.80;;;;;;7676345;22;80363;-61
2023/06/14 14:40:35;;;;;;;6.32;3.80;;;22.40;61.10;;;;;;7675205;22;80307;-60
2023/06/14 14:43:36;;;;;;;5.95;3.78;;;22.30;60.70;;;;;;7674766;22;80927;-60
2023/06/14 14:46:36;;;;;;;6.93;3.80;;;22.30;61.00;;;;;;7674607;22;80407;-60
2023/06/14 14:49:37;;;;;;;5.28;3.47;;;22.40;61.10;;;;;;7672475;22;80425;-60
2023/06/14 14:52:37;;;;;;;4.68;3.60;;;22.30;61.40;;;;;;7674102;22;80673;-59
2023/06/14 14:55:39;;;;;;;6.18;2.92;;;22.40;60.90;;;;;;7675474;22;80773;-60
2023/06/14 14:58:39;;;;;;;7.28;2.80;;;22.30;60.90;;;;;;7677179;22;80297;-61
2023/06/14 15:01:40;;;;;;;4.78;3.40;;;22.30;60.40;;;;;;7676945;22;80340;-62
2023/06/14 15:04:40;;;;;;;3.33;2.53;;;22.30;60.30;;;;;;7678139;22;80728;-59
2023/06/14 15:07:41;;;;;;;4.43;3.20;;;22.30;60.10;;;;;;7677146;22;80814;-60
2023/06/14 15:10:42;;;;;;;6.65;3.50;;;22.30;60.20;;;;;;7661042;22;81339;-61
2023/06/14 15:13:43;;;;;;;12.48;3.03;;;22.30;61.00;;;;;;7677764;22;80771;-61
2023/06/14 15:16:44;;;;;;;8.73;3.28;;;22.30;60.40;;;;;;7678969;22;80222;-62
2023/06/14 15:19:45;;;;;;;5.25;3.25;;;22.40;60.10;;;;;;7681698;22;80343;-61
2023/06/14 15:22:45;;;;;;;10.63;3.05;;;22.40;59.60;;;;;;7638672;22;80703;-63
2023/06/14 15:25:49;;;;;;;3.95;2.95;;;22.50;59.80;;;;;;7638140;22;80875;-61
2023/06/14 15:28:50;;;;;;;9.05;3.10;;;22.50;59.60;;;;;;7618205;22;80793;-63
2023/06/14 15:31:50;;;;;;;7.82;3.45;;;22.50;60.20;;;;;;7606215;23;81287;-60
2023/06/14 15:34:51;;;;;;;7.63;3.42;;;22.50;59.80;;;;;;7605494;23;80278;-60
2023/06/14 15:37:51;;;;;;;4.00;3.03;;;22.50;59.60;;;;;;7626871;22;80564;-60
2023/06/14 15:40:52;;;;;;;13.15;5.85;;;22.50;60.00;;;;;;7638866;22;80266;-63
2023/06/14 15:43:53;;;;;;;8.10;3.75;;;22.50;59.80;;;;;;7641870;22;80575;-61
2023/06/14 15:46:54;;;;;;;6.65;3.47;;;22.50;59.70;;;;;;7642317;22;80297;-60
2023/06/14 15:49:54;;;;;;;8.13;3.55;;;22.50;59.50;;;;;;7643462;22;80958;-61
2023/06/14 15:52:55;;;;;;;4.88;3.00;;;22.50;59.30;;;;;;7642682;22;80527;-61
2023/06/14 15:55:55;;;;;;;4.07;3.17;;;22.40;59.10;;;;;;7637725;22;81688;-63
2023/06/14 15:58:56;;;;;;;3.38;2.92;;;22.40;58.80;;;;;;7616215;22;80251;-62
2023/06/14 16:01:56;;;;;;;4.53;3.10;;;22.50;58.90;;;;;;7638823;22;80937;-62
2023/06/14 16:04:57;;;;;;;6.45;4.20;;;22.50;58.80;;;;;;7643553;22;80320;-63
2023/06/14 16:07:57;;;;;;;9.63;5.18;;;22.40;58.80;;;;;;7642898;22;80291;-62
2023/06/14 16:10:58;;;;;;;5.78;3.90;;;22.50;58.90;;;;;;7639096;22;80803;-63
2023/06/14 16:13:58;;;;;;;5.68;3.13;;;22.40;59.00;;;;;;7645077;22;80456;-60
2023/06/14 16:16:59;;;;;;;4.90;3.13;;;22.50;59.70;;;;;;7640558;22;80461;-60
2023/06/14 16:20:00;;;;;;;9.13;3.47;;;22.50;59.50;;;;;;7640267;22;80808;-59
2023/06/14 16:23:00;;;;;;;6.35;3.05;;;22.60;59.60;;;;;;7644657;22;81002;-60
2023/06/14 16:26:01;;;;;;;5.93;3.08;;;22.60;59.50;;;;;;7650652;22;80810;-60
2023/06/14 16:29:01;;;;;;;8.77;3.03;;;22.70;59.80;;;;;;7641306;22;81359;-59
2023/06/14 16:32:02;;;;;;;13.45;3.92;;;22.70;59.60;;;;;;7629824;22;80992;-58
2023/06/14 16:35:02;;;;;;;11.98;3.60;;;22.70;59.60;;;;;;7636947;22;81586;-58
2023/06/14 16:38:03;;;;;;;14.07;3.63;;;22.80;59.80;;;;;;7632595;22;80993;-59
2023/06/14 16:41:03;;;;;;;8.23;3.28;;;22.80;59.80;;;;;;7636254;22;80381;-59
2023/06/14 16:44:04;;;;;;;8.73;4.55;;;22.80;60.00;;;;;;7637704;22;80476;-61
2023/06/14 16:47:06;;;;;;;7.78;3.90;;;22.90;60.10;;;;;;7636225;22;81863;-60
2023/06/14 16:50:07;;;;;;;6.40;4.25;;;22.80;60.60;;;;;;7640143;22;80980;-62
2023/06/14 16:53:07;;;;;;;9.68;4.35;;;22.80;60.90;;;;;;7638104;22;81149;-61
2023/06/14 16:56:08;;;;;;;11.00;4.57;;;22.90;61.30;;;;;;7639932;22;81299;-64
2023/06/14 16:59:08;;;;;;;7.53;4.95;;;22.90;61.60;;;;;;7636806;22;80386;-63
2023/06/14 17:02:09;;;;;;;12.50;4.53;;;22.90;61.60;;;;;;7636820;22;80659;-62